Time;durP1;ratioP1;P1;durP2;ratioP2;P2;SDS_P1;SDS_P2;PMS_P1;PMS_P2;Temp;Humidity;BMP_temperature;BMP_pressure;BME280_temperature;BME280_humidity;BME280_pressure;Samples;Min_cycle;Max_cycle;Signal;HPM_P1;HPM_P2
2021/09/04 00:02:16;;;;;;;;;;;22.00;80.20;;;;;;5073463;28;20267;-52
2021/09/04 00:05:20;;;;;;;;;;;21.90;79.90;;;;;;5072908;28;19916;-51
2021/09/04 00:08:24;;;;;;;;;;;21.90;79.90;;;;;;5072875;28;20302;-53
2021/09/04 00:11:28;;;;;;;;;;;21.90;79.90;;;;;;5072893;28;19912;-54
2021/09/04 00:14:34;;;;;;;;;;;21.90;80.00;;;;;;5072429;28;19920;-52
2021/09/04 00:17:39;;;;;;;;;;;21.90;80.10;;;;;;5072557;28;19923;-53
2021/09/04 00:20:43;;;;;;;;;;;21.90;80.10;;;;;;5060274;28;19919;-51
2021/09/04 00:23:47;;;;;;;;;;;21.90;80.40;;;;;;5072360;28;19919;-57
2021/09/04 00:26:51;;;;;;;;;;;21.90;80.40;;;;;;5072485;28;19909;-51
2021/09/04 00:29:55;;;;;;;;;;;21.90;80.50;;;;;;5072643;28;19916;-51
2021/09/04 00:33:00;;;;;;;;;;;21.80;80.70;;;;;;5072402;28;19916;-52
2021/09/04 00:36:05;;;;;;;;;;;21.80;81.00;;;;;;5072710;28;20510;-55
2021/09/04 00:39:10;;;;;;;;;;;21.80;81.30;;;;;;5072688;28;19912;-52
2021/09/04 00:42:17;;;;;;;;;;;21.80;81.60;;;;;;5072326;28;19915;-51
2021/09/04 00:45:21;;;;;;;;;;;21.80;82.10;;;;;;5072752;28;19915;-54
2021/09/04 00:48:25;;;;;;;;;;;21.70;82.70;;;;;;5060388;28;19916;-54
2021/09/04 00:51:29;;;;;;;;;;;21.60;82.30;;;;;;5072255;28;19928;-53
2021/09/04 00:54:34;;;;;;;;;;;21.50;82.40;;;;;;5072335;28;19927;-53
2021/09/04 00:57:38;;;;;;;;;;;21.50;83.30;;;;;;5072304;28;19920;-52
2021/09/04 01:00:43;;;;;;;;;;;21.40;83.80;;;;;;5072547;28;20433;-51
2021/09/04 01:03:48;;;;;;;;;;;21.40;83.50;;;;;;5072094;28;19915;-51
2021/09/04 01:06:55;;;;;;;;;;;21.40;83.20;;;;;;5072236;28;19916;-51
2021/09/04 01:09:59;;;;;;;;;;;21.50;83.60;;;;;;5072025;28;19931;-55
2021/09/04 01:13:06;;;;;;;;;;;21.40;83.70;;;;;;5059385;28;19935;-54
2021/09/04 01:16:10;;;;;;;;;;;21.40;83.20;;;;;;5072004;28;20405;-52
2021/09/04 01:19:14;;;;;;;;;;;21.40;83.00;;;;;;5071911;28;19923;-52
2021/09/04 01:22:19;;;;;;;;;;;21.40;83.00;;;;;;5071633;28;19916;-54
2021/09/04 01:25:25;;;;;;;;;;;21.40;82.90;;;;;;5071362;28;19935;-53
2021/09/04 01:28:31;;;;;;;;;;;21.40;83.10;;;;;;5071426;28;19915;-54
2021/09/04 01:31:35;;;;;;;;;;;21.50;83.10;;;;;;5071664;28;20022;-56
2021/09/04 01:34:40;;;;;;;;;;;21.50;82.80;;;;;;5071283;28;19916;-52
2021/09/04 01:37:44;;;;;;;;;;;21.50;82.80;;;;;;5071254;28;19923;-51
2021/09/04 01:40:48;;;;;;;;;;;21.50;82.80;;;;;;5070985;28;19915;-58
2021/09/04 01:43:53;;;;;;;;;;;21.50;82.80;;;;;;5070883;28;19919;-53
2021/09/04 01:46:57;;;;;;;;;;;21.50;83.00;;;;;;5071098;28;19919;-52
2021/09/04 01:50:02;;;;;;;;;;;21.40;83.80;;;;;;5070934;28;19920;-51
2021/09/04 01:53:06;;;;;;;;;;;21.30;84.00;;;;;;5070574;28;19920;-51
2021/09/04 01:56:11;;;;;;;;;;;21.30;83.80;;;;;;5070717;28;19919;-51
2021/09/04 01:59:15;;;;;;;;;;;21.30;84.20;;;;;;5070664;28;20306;-52
2021/09/04 02:02:19;;;;;;;;;;;21.20;84.50;;;;;;5070590;28;19935;-56
2021/09/04 02:05:23;;;;;;;;;;;21.20;84.80;;;;;;5070488;28;19915;-53
2021/09/04 02:08:27;;;;;;;;;;;21.10;84.80;;;;;;5070369;28;19962;-52
2021/09/04 02:11:32;;;;;;;;;;;21.10;84.90;;;;;;5069766;28;20294;-53
2021/09/04 02:14:35;;;;;;;;;;;21.10;84.90;;;;;;5070668;28;19931;-51
2021/09/04 02:17:40;;;;;;;;;;;21.10;85.10;;;;;;5070477;28;19919;-52
2021/09/04 02:20:45;;;;;;;;;;;21.10;85.50;;;;;;5070347;28;19939;-51
2021/09/04 02:23:50;;;;;;;;;;;21.00;85.40;;;;;;5070541;28;19923;-53
2021/09/04 02:26:54;;;;;;;;;;;21.00;86.10;;;;;;5070410;28;20412;-55
2021/09/04 02:29:59;;;;;;;;;;;21.00;86.60;;;;;;5070106;28;19915;-51
2021/09/04 02:33:03;;;;;;;;;;;21.00;86.70;;;;;;5069954;28;20291;-52
2021/09/04 02:36:08;;;;;;;;;;;20.90;87.10;;;;;;5070013;28;19915;-52
2021/09/04 02:39:13;;;;;;;;;;;20.80;87.50;;;;;;5069942;28;19916;-53
2021/09/04 02:42:18;;;;;;;;;;;20.80;87.70;;;;;;5068774;28;19931;-55
2021/09/04 02:45:23;;;;;;;;;;;20.70;87.80;;;;;;5069823;28;19916;-54
2021/09/04 02:48:28;;;;;;;;;;;20.80;87.80;;;;;;5069916;28;19931;-52
2021/09/04 02:51:32;;;;;;;;;;;20.80;87.80;;;;;;5069940;28;19915;-55
2021/09/04 02:54:37;;;;;;;;;;;20.80;87.60;;;;;;5069690;28;20314;-53
2021/09/04 02:57:42;;;;;;;;;;;20.90;87.30;;;;;;5069978;28;19912;-51
2021/09/04 03:00:47;;;;;;;;;;;20.90;87.20;;;;;;5069835;28;19916;-52
2021/09/04 03:03:51;;;;;;;;;;;21.00;87.20;;;;;;5070159;28;19905;-52
2021/09/04 03:06:55;;;;;;;;;;;20.90;87.40;;;;;;5069512;28;19965;-52
2021/09/04 03:10:01;;;;;;;;;;;20.90;88.10;;;;;;5069907;28;19931;-52
2021/09/04 03:13:06;;;;;;;;;;;20.90;88.40;;;;;;5069480;28;19920;-51
2021/09/04 03:16:11;;;;;;;;;;;20.90;87.80;;;;;;5069577;28;19915;-55
2021/09/04 03:19:16;;;;;;;;;;;20.90;87.40;;;;;;5069604;28;19931;-51
2021/09/04 03:22:20;;;;;;;;;;;20.40;89.90;;;;;;5060094;28;20397;-51
2021/09/04 03:25:25;;;;;;;;;;;20.00;91.10;;;;;;5073811;28;20298;-52
2021/09/04 03:28:30;;;;;;;;;;;19.90;91.50;;;;;;5073632;28;19979;-54
2021/09/04 03:31:34;;;;;;;;;;;19.90;92.00;;;;;;5073510;28;20408;-52
2021/09/04 03:34:40;;;;;;;;;;;19.90;92.30;;;;;;5073599;28;19930;-52
2021/09/04 03:37:46;;;;;;;;;;;19.90;92.60;;;;;;5073580;28;19919;-54
2021/09/04 03:40:51;;;;;;;;;;;19.90;92.90;;;;;;5073324;28;19915;-55
2021/09/04 03:43:56;;;;;;;;;;;19.80;93.50;;;;;;5073361;28;19909;-52
2021/09/04 03:47:02;;;;;;;;;;;19.70;93.60;;;;;;5073157;28;20194;-51
2021/09/04 03:50:07;;;;;;;;;;;19.60;93.80;;;;;;5073354;28;19932;-52
2021/09/04 03:53:14;;;;;;;;;;;19.60;94.00;;;;;;5073104;28;19920;-52
2021/09/04 03:56:18;;;;;;;;;;;19.70;94.20;;;;;;5073088;28;19919;-51
2021/09/04 03:59:23;;;;;;;;;;;19.80;94.20;;;;;;5073325;28;19922;-55
2021/09/04 04:02:29;;;;;;;;;;;19.80;94.30;;;;;;5073043;28;20421;-53
2021/09/04 04:05:33;;;;;;;;;;;19.80;94.30;;;;;;5073077;28;19923;-59
2021/09/04 04:08:37;;;;;;;;;;;19.90;94.40;;;;;;5072885;28;19931;-53
2021/09/04 04:11:42;;;;;;;;;;;19.90;94.30;;;;;;5072921;28;19916;-52
2021/09/04 04:14:48;;;;;;;;;;;19.90;94.10;;;;;;5072805;28;19915;-52
2021/09/04 04:17:57;;;;;;;;;;;20.00;94.00;;;;;;5072605;28;19919;-52
2021/09/04 04:21:01;;;;;;;;;;;20.00;94.10;;;;;;5072548;28;19916;-51
2021/09/04 04:24:06;;;;;;;;;;;19.80;94.70;;;;;;5072732;28;19915;-51
2021/09/04 04:27:11;;;;;;;;;;;19.70;94.80;;;;;;5072507;28;19932;-55
2021/09/04 04:30:16;;;;;;;;;;;19.70;94.90;;;;;;5072476;28;19919;-52
2021/09/04 04:33:20;;;;;;;;;;;19.70;94.40;;;;;;5071731;28;19916;-52
2021/09/04 04:36:25;;;;;;;;;;;19.80;94.30;;;;;;5072220;28;19985;-52
2021/09/04 04:39:29;;;;;;;;;;;19.60;95.60;;;;;;5072273;28;19987;-51
2021/09/04 04:42:37;;;;;;;;;;;19.40;96.00;;;;;;5072157;28;19915;-51
2021/09/04 04:45:42;;;;;;;;;;;19.30;96.40;;;;;;5072062;28;19916;-57
2021/09/04 04:48:46;;;;;;;;;;;19.30;96.70;;;;;;5071906;28;19935;-52
2021/09/04 04:51:51;;;;;;;;;;;19.30;97.00;;;;;;5072173;28;19919;-52
2021/09/04 04:54:55;;;;;;;;;;;19.30;97.10;;;;;;5072026;28;19927;-51
2021/09/04 04:58:00;;;;;;;;;;;19.40;97.10;;;;;;5071925;28;19927;-51
2021/09/04 05:01:06;;;;;;;;;;;19.50;97.00;;;;;;5071912;28;19915;-51
2021/09/04 05:04:10;;;;;;;;;;;19.50;96.90;;;;;;5071959;28;20476;-52
2021/09/04 05:07:15;;;;;;;;;;;19.60;96.70;;;;;;5071693;28;19915;-53
2021/09/04 05:10:19;;;;;;;;;;;19.70;96.10;;;;;;5071863;28;19916;-54
2021/09/04 05:13:23;;;;;;;;;;;19.90;95.60;;;;;;5071860;28;19912;-51
2021/09/04 05:16:27;;;;;;;;;;;20.00;95.10;;;;;;5071493;28;19931;-57
2021/09/04 05:19:33;;;;;;;;;;;20.10;95.30;;;;;;5071640;28;19923;-52
2021/09/04 05:22:42;;;;;;;;;;;20.20;94.90;;;;;;5059223;28;19914;-56
2021/09/04 05:25:46;;;;;;;;;;;20.20;94.80;;;;;;5071650;28;19916;-55
2021/09/04 05:28:51;;;;;;;;;;;20.00;95.00;;;;;;5071172;28;19916;-53
2021/09/04 05:31:55;;;;;;;;;;;19.60;96.40;;;;;;5071309;28;19919;-54
2021/09/04 05:35:03;;;;;;;;;;;19.50;97.10;;;;;;5071536;28;20294;-54
2021/09/04 05:38:07;;;;;;;;;;;19.50;97.50;;;;;;5070923;28;20393;-55
2021/09/04 05:41:12;;;;;;;;;;;19.70;97.60;;;;;;5071447;28;19919;-56
2021/09/04 05:44:16;;;;;;;;;;;19.70;97.50;;;;;;5070628;28;19931;-51
2021/09/04 05:47:21;;;;;;;;;;;19.80;97.50;;;;;;5070782;28;19923;-52
2021/09/04 05:50:25;;;;;;;;;;;20.00;97.20;;;;;;5071030;28;19915;-56
2021/09/04 05:53:29;;;;;;;;;;;20.10;96.80;;;;;;5070829;28;19919;-52
2021/09/04 05:56:33;;;;;;;;;;;20.10;96.60;;;;;;5070769;28;19919;-55
2021/09/04 05:59:38;;;;;;;;;;;20.20;96.00;;;;;;5070774;28;20350;-52
2021/09/04 06:02:43;;;;;;;;;;;20.30;96.30;;;;;;5071041;28;19915;-51
2021/09/04 06:05:47;;;;;;;;;;;20.30;95.90;;;;;;5071021;28;19915;-55
2021/09/04 06:08:51;;;;;;;;;;;20.60;95.50;;;;;;5070844;28;19915;-53
2021/09/04 06:11:55;;;;;;;;;;;20.70;94.70;;;;;;5070723;28;19917;-54
2021/09/04 06:15:00;;;;;;;;;;;20.90;94.80;;;;;;5070856;28;19931;-53
2021/09/04 06:18:04;;;;;;;;;;;21.00;94.70;;;;;;5070486;28;19920;-52
2021/09/04 06:21:09;;;;;;;;;;;21.20;94.40;;;;;;5070564;28;20278;-54
2021/09/04 06:24:14;;;;;;;;;;;21.40;94.60;;;;;;5071007;28;20381;-56
2021/09/04 06:27:18;;;;;;;;;;;21.10;95.30;;;;;;5070699;28;19935;-53
2021/09/04 06:30:22;;;;;;;;;;;20.60;95.50;;;;;;5070528;28;19915;-52
2021/09/04 06:33:26;;;;;;;;;;;20.00;97.20;;;;;;5070756;28;19915;-52
2021/09/04 06:36:30;;;;;;;;;;;19.60;99.60;;;;;;5070571;28;19920;-51
2021/09/04 06:39:34;;;;;;;;;;;19.60;99.90;;;;;;5070296;28;19920;-51
2021/09/04 06:42:38;;;;;;;;;;;19.60;99.90;;;;;;5070499;28;19916;-51
2021/09/04 06:45:42;;;;;;;;;;;19.80;99.90;;;;;;5070646;28;19909;-51
2021/09/04 06:48:46;;;;;;;;;;;20.10;99.90;;;;;;5070310;28;19915;-51
2021/09/04 06:51:50;;;;;;;;;;;20.30;99.40;;;;;;5070585;28;19916;-51
2021/09/04 06:54:54;;;;;;;;;;;20.60;98.20;;;;;;5070556;28;20421;-51
2021/09/04 06:57:58;;;;;;;;;;;20.80;97.20;;;;;;5069855;28;19935;-51
2021/09/04 07:01:02;;;;;;;;;;;21.00;97.10;;;;;;5070283;28;20286;-52
2021/09/04 07:04:05;;;;;;;;;;;21.20;96.50;;;;;;5070480;28;19915;-53
2021/09/04 07:07:09;;;;;;;;;;;21.30;95.80;;;;;;5070550;28;19915;-54
2021/09/04 07:10:13;;;;;;;;;;;21.60;95.60;;;;;;5057613;28;20382;-53
2021/09/04 07:13:18;;;;;;;;;;;21.90;94.70;;;;;;5070300;28;20289;-52
2021/09/04 07:16:22;;;;;;;;;;;22.10;94.90;;;;;;5070411;28;19931;-52
2021/09/04 07:19:26;;;;;;;;;;;22.50;94.10;;;;;;5069743;28;19931;-51
2021/09/04 07:22:30;;;;;;;;;;;22.90;92.90;;;;;;5070096;28;19915;-53
2021/09/04 07:25:35;;;;;;;;;;;23.30;91.50;;;;;;5070002;28;19919;-54
2021/09/04 07:28:39;;;;;;;;;;;23.90;90.60;;;;;;5057595;28;20393;-52
2021/09/04 07:31:43;;;;;;;;;;;24.50;89.70;;;;;;5069942;28;19920;-51
2021/09/04 07:34:47;;;;;;;;;;;24.90;86.00;;;;;;5069759;28;20312;-56
2021/09/04 07:37:51;;;;;;;;;;;24.20;90.60;;;;;;5069628;28;19912;-51
2021/09/04 07:40:55;;;;;;;;;;;24.00;91.00;;;;;;5069455;28;19916;-52
2021/09/04 07:43:59;;;;;;;;;;;23.50;92.80;;;;;;5069627;28;19915;-54
2021/09/04 07:47:03;;;;;;;;;;;23.00;93.60;;;;;;5069825;28;19915;-54
2021/09/04 07:50:07;;;;;;;;;;;23.10;94.60;;;;;;5069235;28;19939;-53
2021/09/04 07:53:11;;;;;;;;;;;23.30;93.40;;;;;;5069309;28;20355;-52
2021/09/04 07:56:15;;;;;;;;;;;22.90;94.60;;;;;;5069323;28;19913;-52
2021/09/04 07:59:19;;;;;;;;;;;23.50;94.10;;;;;;5069198;28;19920;-51
2021/09/04 08:02:23;;;;;;;;;;;23.70;93.60;;;;;;5069175;28;19919;-53
2021/09/04 08:05:27;;;;;;;;;;;23.40;93.70;;;;;;5069367;28;20378;-52
2021/09/04 08:08:32;;;;;;;;;;;24.60;92.10;;;;;;5070431;28;19920;-56
2021/09/04 08:11:36;;;;;;;;;;;24.80;89.30;;;;;;5072667;28;19916;-52
2021/09/04 08:14:40;;;;;;;;;;;25.40;87.00;;;;;;5072954;28;19916;-57
2021/09/04 08:17:44;;;;;;;;;;;26.40;85.30;;;;;;5060410;28;20290;-51
2021/09/04 08:20:49;;;;;;;;;;;25.90;84.80;;;;;;5072223;28;19914;-58
2021/09/04 08:23:53;;;;;;;;;;;25.20;87.20;;;;;;5072834;28;19916;-52
2021/09/04 08:26:57;;;;;;;;;;;25.10;84.80;;;;;;5072526;28;19919;-52
2021/09/04 08:30:03;;;;;;;;;;;25.60;84.30;;;;;;5060015;28;19916;-53
2021/09/04 08:33:07;;;;;;;;;;;25.60;84.30;;;;;;5072292;28;19936;-54
2021/09/04 08:36:11;;;;;;;;;;;25.60;82.90;;;;;;5072424;28;20294;-56
2021/09/04 08:39:15;;;;;;;;;;;25.40;82.30;;;;;;5072100;28;19919;-52
2021/09/04 08:42:20;;;;;;;;;;;24.80;84.90;;;;;;5072292;28;19982;-52
2021/09/04 08:45:26;;;;;;;;;;;24.50;87.20;;;;;;5072352;28;19915;-52
2021/09/04 08:48:30;;;;;;;;;;;24.10;88.90;;;;;;5072250;28;19912;-52
2021/09/04 08:51:34;;;;;;;;;;;23.70;90.40;;;;;;5072087;28;19915;-51
2021/09/04 08:54:38;;;;;;;;;;;23.70;90.60;;;;;;5059632;28;19943;-52
2021/09/04 08:57:42;;;;;;;;;;;23.70;90.80;;;;;;5071995;28;19935;-52
2021/09/04 09:00:47;;;;;;;;;;;23.60;90.80;;;;;;5071626;28;19915;-52
2021/09/04 09:03:51;;;;;;;;;;;23.60;91.00;;;;;;5072191;28;20484;-53
2021/09/04 09:06:55;;;;;;;;;;;23.60;91.00;;;;;;5071785;28;19915;-54
2021/09/04 09:09:59;;;;;;;;;;;23.60;90.80;;;;;;5071504;28;19916;-52
2021/09/04 09:13:04;;;;;;;;;;;23.60;91.00;;;;;;5071701;28;19915;-52
2021/09/04 09:16:12;;;;;;;;;;;23.70;90.70;;;;;;5071787;28;19919;-52
2021/09/04 09:19:17;;;;;;;;;;;23.70;90.80;;;;;;5071327;28;20417;-52
2021/09/04 09:22:21;;;;;;;;;;;23.30;91.50;;;;;;5071519;28;19915;-53
2021/09/04 09:25:25;;;;;;;;;;;23.00;91.40;;;;;;5071648;28;19916;-51
2021/09/04 09:28:29;;;;;;;;;;;23.40;92.00;;;;;;5071459;28;19919;-51
2021/09/04 09:31:33;;;;;;;;;;;23.90;91.30;;;;;;5071001;28;19924;-53
2021/09/04 09:34:38;;;;;;;;;;;24.50;88.40;;;;;;5071391;28;20397;-52
2021/09/04 09:37:48;;;;;;;;;;;25.20;83.50;;;;;;5071424;28;19916;-52
2021/09/04 09:40:52;;;;;;;;;;;25.40;82.00;;;;;;5070970;28;19916;-52
2021/09/04 09:43:56;;;;;;;;;;;26.60;79.20;;;;;;5071404;28;19932;-54
2021/09/04 09:47:04;;;;;;;;;;;28.50;76.30;;;;;;5058525;28;20650;-52
2021/09/04 09:50:11;;;;;;;;;;;29.10;74.00;;;;;;5070738;28;19919;-57
2021/09/04 09:53:15;;;;;;;;;;;28.80;72.90;;;;;;5070887;28;20282;-52
2021/09/04 09:56:19;;;;;;;;;;;28.60;73.00;;;;;;5071141;28;19935;-53
2021/09/04 09:59:26;;;;;;;;;;;28.70;74.70;;;;;;5070691;28;19923;-50
2021/09/04 10:02:30;;;;;;;;;;;28.90;75.00;;;;;;5071076;28;20393;-50
2021/09/04 10:05:35;;;;;;;;;;;29.30;74.00;;;;;;5070581;28;19915;-52
2021/09/04 10:08:39;;;;;;;;;;;30.00;72.90;;;;;;5070553;28;19915;-54
2021/09/04 10:11:45;;;;;;;;;;;30.50;73.20;;;;;;5080882;28;19915;-53
2021/09/04 10:14:51;;;;;;;;;;;30.60;72.70;;;;;;5070672;28;19919;-52
2021/09/04 10:17:55;;;;;;;;;;;30.70;72.20;;;;;;5069781;28;20297;-52
2021/09/04 10:21:04;;;;;;;;;;;30.80;70.70;;;;;;5070052;28;19919;-53
2021/09/04 10:24:09;;;;;;;;;;;30.90;70.20;;;;;;5070335;28;19915;-54
2021/09/04 10:27:33;;;;;;;;;;;30.90;68.50;;;;;;5070120;28;19911;-52
2021/09/04 10:30:42;;;;;;;;;;;31.10;68.00;;;;;;5069563;28;19931;-50
2021/09/04 10:33:46;;;;;;;;;;;31.20;68.10;;;;;;5069460;28;19914;-56
2021/09/04 10:36:59;;;;;;;;;;;30.00;68.00;;;;;;5056732;28;20540;-52
2021/09/04 10:40:09;;;;;;;;;;;29.60;69.90;;;;;;5061794;28;19916;-53
2021/09/04 10:43:14;;;;;;;;;;;29.20;70.20;;;;;;5053556;28;20397;-52
2021/09/04 10:46:19;;;;;;;;;;;29.00;71.30;;;;;;5070371;28;19908;-55
2021/09/04 10:49:42;;;;;;;;;;;28.80;71.10;;;;;;5050230;28;19919;-52
2021/09/04 10:52:45;;;;;;;;;;;28.00;71.50;;;;;;5053618;28;19923;-52
2021/09/04 10:55:50;;;;;;;;;;;27.30;74.40;;;;;;5061722;28;20295;-52
2021/09/04 10:58:54;;;;;;;;;;;27.90;72.80;;;;;;5070160;28;19923;-57
2021/09/04 11:02:01;;;;;;;;;;;27.90;71.30;;;;;;5069754;28;19986;-52
2021/09/04 11:05:24;;;;;;;;;;;28.20;71.40;;;;;;5070040;28;20410;-53
2021/09/04 11:08:31;;;;;;;;;;;28.40;71.50;;;;;;5069905;28;19916;-52
2021/09/04 11:11:39;;;;;;;;;;;27.90;71.80;;;;;;5068616;28;19909;-54
2021/09/04 11:14:46;;;;;;;;;;;26.10;74.50;;;;;;5050675;28;19916;-54
2021/09/04 11:17:51;;;;;;;;;;;25.70;75.20;;;;;;5069633;28;19919;-54
2021/09/04 11:20:56;;;;;;;;;;;25.00;77.00;;;;;;5069710;28;19909;-54
2021/09/04 11:24:01;;;;;;;;;;;25.20;77.10;;;;;;5069720;28;19919;-50
2021/09/04 11:27:07;;;;;;;;;;;25.60;76.30;;;;;;5069399;28;20268;-53
2021/09/04 11:30:14;;;;;;;;;;;26.00;76.10;;;;;;5058401;28;19935;-55
2021/09/04 11:33:19;;;;;;;;;;;26.10;78.90;;;;;;5069164;28;19923;-53
2021/09/04 11:36:29;;;;;;;;;;;25.80;78.80;;;;;;5071397;28;19920;-52
2021/09/04 11:39:36;;;;;;;;;;;26.70;78.00;;;;;;5062741;28;19928;-55
2021/09/04 11:42:46;;;;;;;;;;;28.40;74.90;;;;;;5063995;28;19913;-51
2021/09/04 11:46:00;;;;;;;;;;;30.10;71.90;;;;;;5080978;28;19916;-55
2021/09/04 11:49:03;;;;;;;;;;;31.70;68.40;;;;;;5072623;28;20401;-54
2021/09/04 11:52:15;;;;;;;;;;;32.70;66.70;;;;;;5072807;28;19928;-53
2021/09/04 11:55:21;;;;;;;;;;;32.60;66.30;;;;;;5073321;28;20022;-56
2021/09/04 11:58:25;;;;;;;;;;;32.10;66.70;;;;;;5073253;28;20286;-52
2021/09/04 12:01:30;;;;;;;;;;;31.50;66.00;;;;;;5066164;28;19915;-58
2021/09/04 12:04:34;;;;;;;;;;;30.70;66.70;;;;;;5058630;28;19915;-57
2021/09/04 12:07:39;;;;;;;;;;;30.20;67.20;;;;;;5073152;28;19916;-53
2021/09/04 12:10:45;;;;;;;;;;;29.70;67.60;;;;;;5073203;28;19920;-51
2021/09/04 12:13:49;;;;;;;;;;;29.20;67.90;;;;;;5072850;28;19915;-52
2021/09/04 12:16:53;;;;;;;;;;;28.60;69.20;;;;;;5073280;28;19966;-54
2021/09/04 12:20:08;;;;;;;;;;;28.10;70.20;;;;;;5071672;28;19931;-54
2021/09/04 12:23:19;;;;;;;;;;;27.50;70.70;;;;;;5072824;28;19915;-55
2021/09/04 12:26:24;;;;;;;;;;;27.40;71.40;;;;;;5056246;28;19916;-51
2021/09/04 12:29:29;;;;;;;;;;;27.10;71.60;;;;;;5061179;28;19916;-53
2021/09/04 12:32:34;;;;;;;;;;;27.20;71.80;;;;;;5070005;28;19908;-52
2021/09/04 12:35:49;;;;;;;;;;;27.80;71.50;;;;;;5072714;28;19915;-52
2021/09/04 12:38:56;;;;;;;;;;;28.10;70.80;;;;;;5083176;28;19916;-53
2021/09/04 12:42:01;;;;;;;;;;;28.60;70.00;;;;;;5052189;28;19916;-53
2021/09/04 12:45:07;;;;;;;;;;;28.80;70.40;;;;;;5070714;28;20362;-53
2021/09/04 12:48:26;;;;;;;;;;;28.80;71.00;;;;;;5064013;28;19931;-51
2021/09/04 12:51:35;;;;;;;;;;;28.60;72.50;;;;;;5066006;28;19919;-52
2021/09/04 12:54:41;;;;;;;;;;;27.90;74.00;;;;;;5070393;28;19912;-51
2021/09/04 12:57:45;;;;;;;;;;;27.40;75.40;;;;;;5072125;28;20412;-55
2021/09/04 13:00:49;;;;;;;;;;;26.70;75.90;;;;;;5071981;28;19919;-59
2021/09/04 13:03:53;;;;;;;;;;;26.40;77.20;;;;;;5072063;28;19912;-51
2021/09/04 13:07:00;;;;;;;;;;;25.90;79.50;;;;;;5071592;28;19915;-51
2021/09/04 13:10:05;;;;;;;;;;;25.30;81.50;;;;;;5070395;28;19908;-54
2021/09/04 13:13:09;;;;;;;;;;;24.70;84.30;;;;;;5071574;28;19915;-52
2021/09/04 13:16:13;;;;;;;;;;;24.00;85.40;;;;;;5071149;28;19916;-51
2021/09/04 13:19:17;;;;;;;;;;;23.80;87.90;;;;;;5068919;28;19928;-53
2021/09/04 13:22:22;;;;;;;;;;;23.60;91.50;;;;;;5069604;28;20298;-57
2021/09/04 13:25:26;;;;;;;;;;;23.60;92.40;;;;;;5066928;28;20389;-52
2021/09/04 13:28:29;;;;;;;;;;;23.50;92.80;;;;;;5069257;28;19919;-51
2021/09/04 13:31:34;;;;;;;;;;;23.40;94.60;;;;;;5066853;28;20304;-51
2021/09/04 13:34:38;;;;;;;;;;;23.30;97.60;;;;;;5069205;28;19931;-56
2021/09/04 13:37:42;;;;;;;;;;;23.20;99.40;;;;;;5070421;28;19935;-52
2021/09/04 13:40:46;;;;;;;;;;;23.30;99.90;;;;;;5069790;28;20290;-54
2021/09/04 13:43:50;;;;;;;;;;;23.60;99.90;;;;;;5069211;28;19916;-51
2021/09/04 13:46:54;;;;;;;;;;;23.90;99.90;;;;;;5050531;28;19924;-52
2021/09/04 13:49:59;;;;;;;;;;;24.20;99.90;;;;;;5068322;28;19908;-53
2021/09/04 13:53:03;;;;;;;;;;;25.20;98.70;;;;;;5067870;28;20520;-51
2021/09/04 13:56:07;;;;;;;;;;;26.10;98.30;;;;;;5057334;28;19920;-54
2021/09/04 13:59:11;;;;;;;;;;;26.90;97.90;;;;;;5045412;28;19931;-53
2021/09/04 14:02:17;;;;;;;;;;;28.00;95.60;;;;;;5055559;28;20071;-51
2021/09/04 14:05:22;;;;;;;;;;;29.10;93.20;;;;;;5057062;28;20409;-52
2021/09/04 14:08:27;;;;;;;;;;;30.10;92.20;;;;;;5069136;28;19962;-53
2021/09/04 14:11:32;;;;;;;;;;;30.50;90.50;;;;;;5069147;28;19915;-53
2021/09/04 14:14:36;;;;;;;;;;;30.90;89.00;;;;;;5041142;28;20301;-54
2021/09/04 14:17:40;;;;;;;;;;;31.10;87.90;;;;;;5066288;28;20409;-52
2021/09/04 14:20:44;;;;;;;;;;;30.50;84.80;;;;;;5062276;28;19919;-55
2021/09/04 14:23:49;;;;;;;;;;;29.20;86.70;;;;;;5066871;28;20374;-51
2021/09/04 14:26:55;;;;;;;;;;;28.20;89.00;;;;;;5066056;28;19920;-51
2021/09/04 14:29:59;;;;;;;;;;;27.70;90.60;;;;;;5052818;28;22072;-54
2021/09/04 14:33:04;;;;;;;;;;;27.40;91.00;;;;;;5055148;28;19919;-52
2021/09/04 14:36:08;;;;;;;;;;;27.50;91.60;;;;;;5068074;28;20390;-54
2021/09/04 14:39:12;;;;;;;;;;;27.60;91.30;;;;;;5067749;28;19936;-52
2021/09/04 14:42:17;;;;;;;;;;;28.00;91.40;;;;;;5063785;28;20367;-56
2021/09/04 14:45:21;;;;;;;;;;;28.60;91.20;;;;;;5045553;28;19904;-51
2021/09/04 14:48:25;;;;;;;;;;;28.90;88.70;;;;;;5066780;28;19915;-53
2021/09/04 14:51:30;;;;;;;;;;;28.70;90.20;;;;;;5066567;28;19920;-51
2021/09/04 14:54:35;;;;;;;;;;;28.70;90.70;;;;;;5068559;28;19919;-56
2021/09/04 14:57:39;;;;;;;;;;;29.00;89.70;;;;;;5068346;28;19983;-51
2021/09/04 15:00:43;;;;;;;;;;;29.30;89.50;;;;;;5065821;28;19916;-52
2021/09/04 15:03:47;;;;;;;;;;;28.80;89.20;;;;;;5066788;28;20290;-52
2021/09/04 15:06:54;;;;;;;;;;;28.40;89.90;;;;;;5068399;28;19923;-52
2021/09/04 15:10:00;;;;;;;;;;;28.10;90.10;;;;;;5067879;28;19947;-51
2021/09/04 15:13:03;;;;;;;;;;;28.20;90.90;;;;;;5055666;28;19917;-52
2021/09/04 15:16:09;;;;;;;;;;;28.10;90.20;;;;;;5068925;28;19916;-52
2021/09/04 15:19:13;;;;;;;;;;;28.10;90.70;;;;;;5071998;28;19924;-51
2021/09/04 15:22:17;;;;;;;;;;;27.70;90.70;;;;;;5057646;28;19919;-53
2021/09/04 15:25:22;;;;;;;;;;;27.30;91.20;;;;;;5072776;28;19928;-50
2021/09/04 15:28:26;;;;;;;;;;;27.10;91.50;;;;;;5059798;28;19915;-53
2021/09/04 15:31:30;;;;;;;;;;;27.00;91.90;;;;;;5071042;28;19923;-54
2021/09/04 15:34:36;;;;;;;;;;;26.90;92.10;;;;;;5071688;28;19913;-50
2021/09/04 15:37:40;;;;;;;;;;;26.80;92.00;;;;;;5070654;28;19931;-50
2021/09/04 15:40:44;;;;;;;;;;;26.60;92.00;;;;;;5057127;28;20316;-51
2021/09/04 15:43:51;;;;;;;;;;;26.30;92.20;;;;;;5071031;28;20397;-51
2021/09/04 15:46:55;;;;;;;;;;;25.80;92.60;;;;;;5071519;28;19923;-51
2021/09/04 15:49:59;;;;;;;;;;;25.20;92.90;;;;;;5068076;28;19919;-51
2021/09/04 15:53:06;;;;;;;;;;;24.80;93.30;;;;;;5069649;28;20294;-53
2021/09/04 15:56:11;;;;;;;;;;;24.50;94.00;;;;;;5070287;28;20384;-52
2021/09/04 15:59:17;;;;;;;;;;;24.30;94.30;;;;;;5056830;28;19919;-51
2021/09/04 16:02:22;;;;;;;;;;;24.30;95.20;;;;;;5069320;28;19916;-50
2021/09/04 16:05:27;;;;;;;;;;;24.30;95.50;;;;;;5070226;28;19927;-51
2021/09/04 16:08:31;;;;;;;;;;;24.50;95.20;;;;;;5069923;28;19916;-51
2021/09/04 16:11:36;;;;;;;;;;;24.60;95.40;;;;;;5070083;28;19915;-51
2021/09/04 16:14:40;;;;;;;;;;;24.60;95.40;;;;;;5069673;28;19912;-54
2021/09/04 16:17:44;;;;;;;;;;;24.50;95.50;;;;;;5070305;28;19919;-53
2021/09/04 16:20:49;;;;;;;;;;;23.80;96.50;;;;;;5044939;28;19927;-51
2021/09/04 16:23:53;;;;;;;;;;;23.20;98.20;;;;;;5057666;28;19923;-50
2021/09/04 16:26:57;;;;;;;;;;;23.00;98.90;;;;;;5069818;28;19915;-54
2021/09/04 16:30:01;;;;;;;;;;;22.70;99.40;;;;;;5066456;28;19920;-50
2021/09/04 16:33:05;;;;;;;;;;;22.30;99.90;;;;;;5061514;28;19932;-52
2021/09/04 16:36:11;;;;;;;;;;;22.20;99.90;;;;;;5066893;28;19916;-52
2021/09/04 16:39:15;;;;;;;;;;;22.20;99.90;;;;;;5070137;28;20393;-50
2021/09/04 16:42:18;;;;;;;;;;;22.30;99.90;;;;;;5071266;28;19919;-52
2021/09/04 16:45:23;;;;;;;;;;;22.20;99.90;;;;;;5058355;28;19920;-50
2021/09/04 16:48:26;;;;;;;;;;;22.20;99.90;;;;;;5070840;28;19915;-52
2021/09/04 16:51:32;;;;;;;;;;;22.20;99.90;;;;;;5058376;28;19935;-51
2021/09/04 16:54:36;;;;;;;;;;;22.30;99.90;;;;;;5071759;28;19920;-50
2021/09/04 16:57:40;;;;;;;;;;;22.40;99.90;;;;;;5070317;28;19919;-50
2021/09/04 17:00:45;;;;;;;;;;;22.50;99.90;;;;;;5068618;28;19919;-52
2021/09/04 17:03:49;;;;;;;;;;;22.70;99.90;;;;;;4949940;28;69173;-52
2021/09/04 17:06:53;;;;;;;;;;;22.80;99.90;;;;;;4917273;28;21895;-52
2021/09/04 17:09:57;;;;;;;;;;;22.80;99.90;;;;;;5007573;28;19917;-51
2021/09/04 17:13:03;;;;;;;;;;;22.80;99.90;;;;;;5029891;28;19932;-53
2021/09/04 17:16:06;;;;;;;;;;;22.90;99.90;;;;;;5027457;28;19924;-53
2021/09/04 17:19:11;;;;;;;;;;;22.90;99.90;;;;;;5027416;28;19924;-52
2021/09/04 17:22:15;;;;;;;;;;;22.80;99.90;;;;;;5020218;28;19917;-51
2021/09/04 17:25:20;;;;;;;;;;;22.70;99.90;;;;;;5022030;28;19932;-51
2021/09/04 17:46:07;;;;;;;;;;;21.70;99.90;;;;;;5027184;28;20391;-51
2021/09/04 17:49:11;;;;;;;;;;;21.50;99.90;;;;;;5015002;28;19909;-50
2021/09/04 17:52:15;;;;;;;;;;;21.40;99.90;;;;;;5030376;28;19916;-50
2021/09/04 17:55:20;;;;;;;;;;;21.30;99.90;;;;;;5027947;28;19933;-50
2021/09/04 17:58:24;;;;;;;;;;;21.30;99.90;;;;;;5022572;28;19909;-51
2021/09/04 18:01:28;;;;;;;;;;;21.20;99.90;;;;;;5021494;28;19936;-53
2021/09/04 18:04:32;;;;;;;;;;;21.10;99.90;;;;;;5030003;28;19936;-50
2021/09/04 18:07:36;;;;;;;;;;;21.00;99.90;;;;;;5030092;28;19984;-53
2021/09/04 18:10:41;;;;;;;;;;;21.00;99.90;;;;;;5030316;28;19919;-53
2021/09/04 18:13:44;;;;;;;;;;;20.80;99.90;;;;;;5030901;28;19916;-50